Time;durP1;ratioP1;P1;durP2;ratioP2;P2;SDS_P1;SDS_P2;PMS_P1;PMS_P2;Temp;Humidity;BMP_temperature;BMP_pressure;BME280_temperature;BME280_humidity;BME280_pressure;Samples;Min_cycle;Max_cycle;Signal;HPM_P1;HPM_P2
2022/09/08 00:01:45;;;;;;;7.58;6.90;;;;;;;17.14;92.35;96415.92;1749835;81;20975;-85
2022/09/08 00:04:11;;;;;;;7.30;6.70;;;;;;;17.08;92.58;96401.88;1756662;81;20978;-85
2022/09/08 00:06:36;;;;;;;8.05;7.35;;;;;;;17.08;92.58;96401.88;1736520;81;20946;-85
2022/09/08 00:09:02;;;;;;;7.95;7.20;;;;;;;17.15;92.46;96408.85;1752430;81;20966;-85
2022/09/08 00:11:30;;;;;;;8.28;7.22;;;;;;;17.17;92.40;96399.72;1744039;81;21286;-85
2022/09/08 00:14:01;;;;;;;8.10;7.37;;;;;;;17.20;92.35;96401.09;1683059;83;21092;-85
2022/09/08 00:16:27;;;;;;;8.00;7.20;;;;;;;17.24;92.27;96404.36;1739418;81;20987;-85
2022/09/08 00:18:52;;;;;;;8.55;7.80;;;;;;;17.26;92.16;96404.97;1728502;81;21386;-85
2022/09/08 00:21:22;;;;;;;8.28;7.47;;;;;;;17.30;91.97;96406.62;1761466;81;20996;-85
2022/09/08 00:23:49;;;;;;;8.03;7.25;;;;;;;17.32;91.95;96399.33;1762673;80;21011;-85
2022/09/08 00:26:17;;;;;;;8.15;7.45;;;;;;;17.35;91.77;96400.19;1749077;82;20999;-84
2022/09/08 00:28:43;;;;;;;8.30;7.60;;;;;;;17.36;91.65;96397.84;1726748;82;21462;-84
2022/09/08 00:31:09;;;;;;;8.10;7.40;;;;;;;17.37;91.57;96396.81;1746054;82;20964;-85
2022/09/08 00:33:34;;;;;;;7.70;7.00;;;;;;;17.39;91.51;96399.50;1732923;82;20924;-85
2022/09/08 00:36:03;;;;;;;7.12;6.42;;;;;;;17.42;91.42;96402.73;1712508;82;20994;-85
2022/09/08 00:38:30;;;;;;;7.22;6.53;;;;;;;17.37;91.23;96391.56;1736527;82;20988;-85
2022/09/08 00:40:57;;;;;;;7.83;7.15;;;;;;;17.45;91.14;96398.34;1724795;82;21004;-85
2022/09/08 00:43:45;;;;;;;7.58;6.95;;;;;;;17.43;90.90;96393.31;1732632;82;21019;-85
2022/09/08 00:46:20;;;;;;;7.50;6.90;;;;;;;17.45;90.77;96400.97;1706703;82;20975;-84
2022/09/08 00:49:00;;;;;;;6.67;6.05;;;;;;;17.46;90.72;96396.00;1745517;82;21326;-85
2022/09/08 00:51:26;;;;;;;7.87;7.17;;;;;;;17.44;90.74;96392.80;1741907;82;21046;-85
2022/09/08 00:53:51;;;;;;;8.23;7.53;;;;;;;17.43;90.76;96392.52;1741752;82;20991;-85
2022/09/08 00:56:17;;;;;;;8.58;7.87;;;;;;;17.42;90.78;96392.23;1729080;82;20973;-84
2022/09/08 00:58:43;;;;;;;7.47;6.80;;;;;;;17.41;90.90;96390.11;1733267;82;21336;-84
2022/09/08 01:01:09;;;;;;;7.22;6.62;;;;;;;17.41;90.94;96388.80;1713570;82;20957;-85
2022/09/08 01:03:37;;;;;;;8.38;7.60;;;;;;;17.39;91.07;96382.95;1712469;82;21011;-85
2022/09/08 01:06:20;;;;;;;8.65;7.85;;;;;;;17.37;91.10;96380.55;1706916;81;20983;-85
2022/09/08 01:14:50;;;;;;;7.87;7.25;;;;;;;17.35;91.23;96385.23;1712724;82;21016;-85
2022/09/08 01:17:21;;;;;;;7.97;7.28;;;;;;;17.34;91.39;96385.45;1712418;82;21000;-85
2022/09/08 01:19:47;;;;;;;8.53;7.70;;;;;;;17.32;91.52;96387.51;1705016;82;21000;-85
2022/09/08 01:22:46;;;;;;;8.55;7.75;;;;;;;17.29;91.42;96387.45;1721913;82;21009;-85
2022/09/08 01:25:48;;;;;;;8.35;7.45;;;;;;;17.26;91.45;96383.95;1727477;82;20946;-85
2022/09/08 01:28:40;;;;;;;8.43;7.67;;;;;;;17.23;91.63;96386.20;1717169;82;21035;-86
2022/09/08 01:31:06;;;;;;;9.25;8.20;;;;;;;17.17;91.89;96383.97;1699336;82;21141;-85
2022/09/08 01:33:32;;;;;;;8.65;7.80;;;;;;;17.11;91.87;96378.30;1746934;82;21000;-85
2022/09/08 01:35:58;;;;;;;9.38;8.45;;;;;;;17.08;92.16;96382.66;1708059;83;20999;-85
2022/09/08 01:38:23;;;;;;;9.00;8.20;;;;;;;17.04;92.36;96379.69;1738088;82;20948;-86
2022/09/08 01:40:49;;;;;;;9.35;8.53;;;;;;;17.01;92.72;96381.97;1727997;82;21364;-85
2022/09/08 01:43:15;;;;;;;9.55;8.58;;;;;;;16.99;93.05;96382.70;1724545;82;20956;-85
2022/09/08 01:45:40;;;;;;;10.65;9.65;;;;;;;16.98;93.07;96379.78;1738988;82;20949;-85
2022/09/08 01:48:07;;;;;;;9.63;8.73;;;;;;;16.95;92.86;96387.59;1707286;83;21020;-85
2022/09/08 01:50:33;;;;;;;9.80;8.88;;;;;;;16.92;92.84;96376.23;1717198;82;21022;-84
2022/09/08 01:52:59;;;;;;;9.95;9.05;;;;;;;16.89;93.19;96373.23;1716882;82;21015;-85
2022/09/08 01:55:24;;;;;;;10.10;9.23;;;;;;;16.85;93.29;96372.87;1737930;82;20946;-85
2022/09/08 01:57:50;;;;;;;10.08;9.15;;;;;;;16.84;93.22;96371.79;1731656;82;21067;-85
2022/09/08 02:00:16;;;;;;;10.58;9.58;;;;;;;16.82;93.58;96375.95;1695784;83;21012;-85
2022/09/08 02:02:41;;;;;;;10.43;9.43;;;;;;;16.80;93.75;96370.12;1684702;84;20943;-85
2022/09/08 02:05:07;;;;;;;10.30;9.40;;;;;;;16.77;94.24;96365.32;1691797;84;21040;-84
2022/09/08 02:07:36;;;;;;;11.15;9.98;;;;;;;16.75;94.56;96358.95;1693916;83;20996;-85
2022/09/08 02:10:05;;;;;;;10.85;9.85;;;;;;;16.77;94.78;96349.58;1696312;84;20960;-84
2022/09/08 02:12:31;;;;;;;10.53;9.63;;;;;;;16.80;94.83;96347.31;1707567;83;20984;-85
2022/09/08 02:14:57;;;;;;;11.10;10.20;;;;;;;16.84;94.81;96342.92;1704991;84;20972;-85
2022/09/08 02:17:23;;;;;;;11.08;10.18;;;;;;;16.87;94.72;96335.41;1693754;83;21353;-85
2022/09/08 02:19:48;;;;;;;10.65;9.83;;;;;;;16.94;94.70;96334.02;1706152;83;20976;-85
2022/09/08 02:22:14;;;;;;;10.68;9.80;;;;;;;17.01;94.73;96332.09;1708335;84;20933;-85
2022/09/08 02:24:41;;;;;;;10.20;9.40;;;;;;;17.08;94.50;96330.99;1705060;84;20941;-86
2022/09/08 02:27:08;;;;;;;11.00;10.08;;;;;;;17.13;94.31;96329.00;1662446;85;21080;-86
2022/09/08 02:29:34;;;;;;;11.12;10.03;;;;;;;17.18;94.22;96332.26;1714478;83;21013;-85
2022/09/08 02:32:00;;;;;;;11.28;10.38;;;;;;;17.19;94.08;96326.78;1706322;83;20980;-85
2022/09/08 02:34:26;;;;;;;10.55;9.73;;;;;;;17.21;94.04;96326.55;1711740;83;21044;-85
2022/09/08 02:36:52;;;;;;;12.05;11.08;;;;;;;17.24;93.85;96330.04;1698776;83;21334;-85
2022/09/08 02:39:20;;;;;;;11.18;10.28;;;;;;;17.21;93.90;96325.24;1717869;83;20976;-85
2022/09/08 02:41:45;;;;;;;11.12;10.20;;;;;;;17.23;93.79;96322.67;1668201;84;21020;-85
2022/09/08 02:44:14;;;;;;;11.88;10.75;;;;;;;17.22;93.68;96317.65;1722879;83;21367;-85
2022/09/08 02:46:41;;;;;;;10.70;9.70;;;;;;;17.20;93.86;96320.50;1721979;83;20944;-85
2022/09/08 02:49:10;;;;;;;11.25;10.35;;;;;;;17.18;94.02;96321.76;1700653;83;21100;-85
2022/09/08 02:51:36;;;;;;;11.33;10.32;;;;;;;17.15;93.97;96322.21;1698692;83;21019;-84
2022/09/08 02:54:02;;;;;;;12.00;11.00;;;;;;;17.13;94.03;96321.64;1720436;83;20936;-85
2022/09/08 02:56:29;;;;;;;11.95;10.95;;;;;;;17.12;94.16;96322.15;1721257;83;21015;-85
2022/09/08 02:58:54;;;;;;;11.78;10.68;;;;;;;17.12;94.34;96315.59;1713009;83;20948;-85
2022/09/08 03:01:21;;;;;;;11.88;10.88;;;;;;;17.12;94.47;96317.41;1668703;84;21350;-85
2022/09/08 03:03:47;;;;;;;12.58;11.53;;;;;;;17.11;94.82;96320.55;1667219;86;21048;-85
2022/09/08 03:06:14;;;;;;;12.55;11.35;;;;;;;17.10;95.08;96317.64;1668356;85;20995;-85
2022/09/08 03:08:40;;;;;;;13.88;12.60;;;;;;;17.10;95.24;96316.33;1707619;83;21402;-85
2022/09/08 03:11:06;;;;;;;13.13;11.93;;;;;;;17.10;95.39;96313.70;1701154;83;21023;-86
2022/09/08 03:13:31;;;;;;;12.40;11.40;;;;;;;17.10;95.44;96310.56;1716538;83;21027;-85
2022/09/08 03:15:57;;;;;;;13.30;12.20;;;;;;;17.15;95.35;96319.59;1708898;82;20960;-85
2022/09/08 03:18:23;;;;;;;12.47;11.38;;;;;;;17.20;95.15;96319.70;1727874;82;20982;-85
2022/09/08 03:21:06;;;;;;;12.35;11.33;;;;;;;17.29;94.88;96311.80;1712724;82;21299;-85
2022/09/08 03:23:33;;;;;;;12.10;11.10;;;;;;;17.36;94.62;96317.23;1717225;83;20984;-85
2022/09/08 03:26:04;;;;;;;12.63;11.53;;;;;;;17.46;94.46;96310.12;1705727;82;21135;-84
2022/09/08 03:28:30;;;;;;;11.93;10.82;;;;;;;17.51;94.07;96301.55;1733923;82;20993;-85
2022/09/08 03:30:57;;;;;;;12.63;11.55;;;;;;;17.55;93.91;96304.80;1720024;82;20979;-85
2022/09/08 03:33:22;;;;;;;11.73;10.63;;;;;;;17.60;93.53;96302.31;1736868;82;21286;-84
2022/09/08 03:35:48;;;;;;;11.75;10.75;;;;;;;17.65;93.29;96306.88;1717113;82;21373;-86
2022/09/08 03:38:17;;;;;;;12.15;11.00;;;;;;;17.70;92.79;96302.56;1724428;82;20939;-85
2022/09/08 03:40:43;;;;;;;11.20;10.28;;;;;;;17.79;92.78;96306.17;1736316;82;21000;-86
2022/09/08 03:43:08;;;;;;;11.93;11.00;;;;;;;17.83;92.16;96305.48;1737875;82;20897;-86
2022/09/08 03:45:34;;;;;;;11.10;10.20;;;;;;;17.95;91.83;96301.03;1721913;82;20996;-85
2022/09/08 03:48:00;;;;;;;11.65;10.68;;;;;;;17.95;91.83;96301.03;1733475;82;20944;-85
2022/09/08 03:50:26;;;;;;;11.85;10.78;;;;;;;18.03;91.30;96296.44;1737919;82;20991;-85
2022/09/08 03:52:52;;;;;;;11.83;10.82;;;;;;;18.06;90.92;96288.08;1717181;82;20905;-86
2022/09/08 03:55:18;;;;;;;11.48;10.50;;;;;;;18.10;90.85;96292.67;1740400;82;20940;-85
2022/09/08 03:57:44;;;;;;;11.90;10.90;;;;;;;18.13;90.56;96286.95;1743592;82;21067;-85
2022/09/08 04:00:11;;;;;;;11.65;10.63;;;;;;;18.16;90.64;96289.63;1744068;82;20984;-85
2022/09/08 04:02:37;;;;;;;11.50;10.50;;;;;;;18.15;90.43;96286.71;1728646;82;20976;-85
2022/09/08 04:05:04;;;;;;;10.90;10.00;;;;;;;18.13;90.35;96285.62;1726578;82;21364;-85
2022/09/08 04:07:30;;;;;;;12.15;11.15;;;;;;;18.10;90.32;96283.98;1745211;82;20980;-85
2022/09/08 04:09:56;;;;;;;11.75;10.60;;;;;;;18.08;90.31;96280.80;1732975;82;20933;-85
2022/09/08 04:12:24;;;;;;;10.78;9.98;;;;;;;18.04;90.22;96280.95;1737564;82;20980;-85
2022/09/08 04:14:50;;;;;;;11.35;10.30;;;;;;;18.00;90.21;96288.50;1717145;82;20947;-86
2022/09/08 04:17:19;;;;;;;10.72;9.83;;;;;;;17.98;90.25;96290.05;1717239;82;20977;-85
2022/09/08 04:19:47;;;;;;;11.00;10.10;;;;;;;17.97;90.45;96283.19;1729483;82;20991;-85
2022/09/08 04:22:13;;;;;;;11.35;10.25;;;;;;;17.98;90.53;96282.16;1725883;82;21027;-85
2022/09/08 04:24:38;;;;;;;11.40;10.40;;;;;;;17.99;90.44;96274.55;1745250;82;20940;-85
2022/09/08 04:27:04;;;;;;;11.12;10.23;;;;;;;18.00;90.39;96276.67;1755300;81;21104;-86
2022/09/08 04:29:30;;;;;;;10.78;9.88;;;;;;;18.02;90.18;96279.06;1725454;82;20988;-85
2022/09/08 04:31:56;;;;;;;12.10;11.10;;;;;;;18.07;89.99;96276.56;1735001;81;21008;-85
2022/09/08 04:34:21;;;;;;;11.30;10.40;;;;;;;18.14;89.94;96279.86;1699137;84;20976;-85
2022/09/08 04:36:47;;;;;;;11.22;10.23;;;;;;;18.17;89.93;96279.39;1761716;81;21362;-85
2022/09/08 04:39:13;;;;;;;10.32;9.40;;;;;;;18.20;89.83;96281.03;1747115;81;20982;-85
2022/09/08 04:41:39;;;;;;;11.05;10.15;;;;;;;18.20;89.69;96281.55;1754898;81;21000;-85
2022/09/08 04:44:05;;;;;;;11.75;10.75;;;;;;;18.21;89.74;96277.89;1765734;81;21035;-85
2022/09/08 04:46:32;;;;;;;12.47;11.38;;;;;;;18.20;89.71;96278.41;1740910;81;22485;-86
2022/09/08 04:48:59;;;;;;;11.30;10.40;;;;;;;18.21;89.67;96284.45;1745657;80;21051;-85
2022/09/08 04:51:25;;;;;;;11.43;10.40;;;;;;;18.20;89.75;96287.61;1760601;81;21039;-86
2022/09/08 04:53:52;;;;;;;11.05;10.15;;;;;;;18.22;89.51;96287.38;1762996;81;20987;-85
2022/09/08 04:56:19;;;;;;;11.75;10.75;;;;;;;18.24;89.46;96287.45;1745533;81;21010;-86
2022/09/08 04:58:46;;;;;;;11.57;10.38;;;;;;;18.28;89.23;96285.15;1755710;80;21077;-85
2022/09/08 05:01:15;;;;;;;11.40;10.50;;;;;;;18.32;89.02;96286.80;1734048;82;21002;-85
2022/09/08 05:03:41;;;;;;;11.95;10.95;;;;;;;18.35;89.03;96281.06;1697379;82;20970;-86
2022/09/08 05:06:10;;;;;;;10.72;9.80;;;;;;;18.36;88.64;96282.66;1732013;82;21351;-85
2022/09/08 05:08:36;;;;;;;11.65;10.50;;;;;;;18.38;88.94;96274.81;1700698;84;21051;-85
2022/09/08 05:11:02;;;;;;;11.48;10.48;;;;;;;18.41;88.65;96272.26;1728714;83;20968;-85
2022/09/08 05:13:28;;;;;;;11.83;10.88;;;;;;;18.44;88.20;96273.10;1711344;83;21023;-86
2022/09/08 05:16:04;;;;;;;11.78;10.82;;;;;;;18.49;88.26;96271.88;1700591;83;20948;-85
2022/09/08 05:18:30;;;;;;;11.35;10.43;;;;;;;18.52;88.17;96266.94;1750782;81;20975;-85
2022/09/08 05:20:56;;;;;;;11.12;10.13;;;;;;;18.53;88.25;96269.84;1738034;81;21310;-85
2022/09/08 05:23:21;;;;;;;11.95;10.82;;;;;;;18.54;88.27;96264.06;1756872;81;20964;-85
2022/09/08 05:25:59;;;;;;;12.85;10.48;;;;;;;18.56;88.32;96265.98;1753802;81;20944;-85
2022/09/08 05:28:25;;;;;;;11.93;11.03;;;;;;;18.60;87.47;96273.16;1740912;81;21421;-85
2022/09/08 05:30:50;;;;;;;11.73;10.63;;;;;;;18.67;88.08;96274.87;1755962;80;21091;-85
2022/09/08 05:33:17;;;;;;;11.85;10.85;;;;;;;18.67;88.28;96274.87;1776639;80;20956;-85
2022/09/08 05:35:43;;;;;;;11.08;10.28;;;;;;;18.66;88.09;96274.59;1732771;81;20999;-85
2022/09/08 05:38:09;;;;;;;11.60;10.50;;;;;;;18.65;88.18;96268.53;1735708;80;21348;-85
2022/09/08 05:40:36;;;;;;;11.38;10.48;;;;;;;18.65;88.08;96271.67;1732963;81;20959;-85
2022/09/08 05:43:03;;;;;;;11.15;10.25;;;;;;;18.66;88.01;96262.75;1716149;83;20963;-85
2022/09/08 05:45:28;;;;;;;12.28;11.28;;;;;;;18.67;87.95;96261.19;1745700;82;21343;-85
2022/09/08 05:47:54;;;;;;;11.30;10.30;;;;;;;18.70;88.03;96251.51;1698613;83;20972;-85
2022/09/08 05:50:20;;;;;;;12.15;11.15;;;;;;;18.73;87.86;96252.38;1720867;83;20984;-86
2022/09/08 05:52:46;;;;;;;11.93;10.82;;;;;;;18.75;87.57;96256.08;1728257;82;21347;-85
2022/09/08 05:55:11;;;;;;;12.60;11.50;;;;;;;18.79;87.11;96253.25;1697689;84;21013;-85
2022/09/08 05:57:39;;;;;;;12.65;11.65;;;;;;;18.83;87.54;96254.38;1701374;82;21029;-86
2022/09/08 06:00:07;;;;;;;12.70;11.60;;;;;;;18.87;87.89;96252.37;1742167;82;20991;-85
2022/09/08 06:02:34;;;;;;;12.63;11.55;;;;;;;18.89;87.49;96245.55;1754750;81;20963;-85
2022/09/08 06:04:59;;;;;;;12.10;11.08;;;;;;;18.94;87.60;96252.20;1747523;81;20963;-85
2022/09/08 06:07:25;;;;;;;12.13;11.12;;;;;;;18.96;87.65;96246.18;1757768;81;20971;-85
2022/09/08 06:09:52;;;;;;;12.25;11.22;;;;;;;18.96;87.79;96247.50;1745108;80;20999;-85
2022/09/08 06:12:18;;;;;;;11.85;10.85;;;;;;;18.98;88.02;96246.73;1749310;81;20948;-86
2022/09/08 06:14:44;;;;;;;12.88;11.78;;;;;;;18.99;88.31;96254.12;1743371;81;20936;-85
2022/09/08 06:17:10;;;;;;;12.78;11.70;;;;;;;19.00;87.50;96252.56;1740385;81;21010;-85
2022/09/08 06:19:36;;;;;;;12.80;11.70;;;;;;;19.02;88.04;96254.95;1750798;81;21378;-85
2022/09/08 06:22:02;;;;;;;12.80;11.70;;;;;;;19.02;87.53;96254.44;1763890;80;20966;-85
2022/09/08 06:24:28;;;;;;;12.63;11.60;;;;;;;19.07;88.13;96256.38;1778948;80;20959;-86
2022/09/08 06:27:20;;;;;;;12.75;11.65;;;;;;;19.07;87.90;96251.91;1754950;81;20999;-85
2022/09/08 06:30:03;;;;;;;12.10;11.00;;;;;;;19.10;88.28;96255.38;1740883;81;21421;-85
2022/09/08 06:32:38;;;;;;;13.32;12.15;;;;;;;19.10;88.42;96250.63;1733540;81;21431;-85
2022/09/08 06:35:21;;;;;;;13.10;12.03;;;;;;;19.08;88.63;96245.61;1737790;81;21399;-85
2022/09/08 06:37:54;;;;;;;13.68;12.37;;;;;;;19.08;89.17;96250.08;1746552;82;21394;-86
2022/09/08 06:40:35;;;;;;;12.82;11.60;;;;;;;19.08;88.83;96252.19;1725537;82;21375;-85
2022/09/08 06:43:09;;;;;;;12.55;11.45;;;;;;;19.08;89.39;96253.50;1746870;82;21339;-85
2022/09/08 06:45:38;;;;;;;14.80;13.32;;;;;;;19.08;89.73;96253.50;1747958;82;21327;-85
2022/09/08 06:48:22;;;;;;;12.15;11.15;;;;;;;19.08;89.35;96253.50;1743512;81;20981;-86
2022/09/08 06:51:17;;;;;;;13.60;12.40;;;;;;;19.10;89.77;96251.42;1725512;82;21362;-85
2022/09/08 06:54:19;;;;;;;11.75;10.85;;;;;;;19.11;90.10;96246.44;1725621;81;20960;-85
2022/09/08 06:57:11;;;;;;;13.27;12.07;;;;;;;19.12;90.58;96242.77;1746872;82;20967;-86
2022/09/08 06:59:58;;;;;;;13.50;12.40;;;;;;;19.11;90.71;96243.80;1746552;82;21026;-85
2022/09/08 07:03:07;;;;;;;14.60;13.30;;;;;;;19.13;90.67;96233.83;1744382;82;20944;-85
2022/09/08 07:06:05;;;;;;;13.35;12.25;;;;;;;19.14;90.83;96230.16;1725457;82;20991;-85
2022/09/08 07:09:15;;;;;;;15.63;13.30;;;;;;;19.23;90.85;96235.04;1725474;81;20944;-86
2022/09/08 07:12:17;;;;;;;13.60;12.28;;;;;;;19.28;91.25;96222.73;1723422;82;20970;-85
2022/09/08 07:15:21;;;;;;;13.05;11.83;;;;;;;19.36;91.49;96215.77;1704843;83;20967;-85
2022/09/08 07:18:18;;;;;;;13.38;12.13;;;;;;;19.41;90.60;96221.63;1656475;85;21017;-85
2022/09/08 07:20:44;;;;;;;13.65;12.37;;;;;;;19.47;91.38;96221.96;1718872;82;21003;-85
2022/09/08 07:23:21;;;;;;;12.65;11.55;;;;;;;19.54;91.44;96211.27;1746174;81;21350;-85
2022/09/08 07:25:56;;;;;;;13.10;11.88;;;;;;;19.60;91.57;96219.02;1724815;82;21009;-85
2022/09/08 07:28:24;;;;;;;12.60;11.50;;;;;;;19.66;91.39;96206.19;1746072;81;21071;-86
2022/09/08 07:31:00;;;;;;;12.00;10.85;;;;;;;19.73;90.42;96209.46;1742692;80;21393;-86
2022/09/08 07:33:41;;;;;;;12.43;11.28;;;;;;;19.79;89.86;96207.68;1745084;80;21011;-86
2022/09/08 07:36:28;;;;;;;11.97;10.85;;;;;;;19.86;90.69;96211.47;1720815;82;21395;-85
2022/09/08 07:38:55;;;;;;;12.88;11.78;;;;;;;19.92;90.79;96214.44;1694754;84;20994;-85
2022/09/08 07:41:34;;;;;;;12.82;11.63;;;;;;;20.00;90.65;96206.09;1725396;82;21326;-85
2022/09/08 07:44:01;;;;;;;13.05;11.85;;;;;;;20.06;89.78;96212.52;1733140;82;20916;-86
2022/09/08 07:46:49;;;;;;;12.50;11.28;;;;;;;20.15;89.97;96208.91;1754252;82;21031;-85
2022/09/08 07:49:23;;;;;;;13.70;12.40;;;;;;;20.20;90.45;96199.76;1756870;82;20999;-85
2022/09/08 07:52:15;;;;;;;12.37;11.25;;;;;;;20.24;90.35;96201.38;1721289;82;21007;-86
2022/09/08 07:55:11;;;;;;;12.23;11.03;;;;;;;20.23;90.70;96203.73;1728364;80;21096;-85
2022/09/08 07:57:54;;;;;;;12.28;11.18;;;;;;;20.24;89.48;96196.09;1752009;80;21039;-85
2022/09/08 08:00:26;;;;;;;12.10;10.98;;;;;;;20.29;90.38;96203.54;1718185;83;21075;-85
2022/09/08 08:03:37;;;;;;;12.45;11.35;;;;;;;20.28;90.84;96197.98;1703376;83;21042;-86
2022/09/08 08:06:39;;;;;;;12.07;10.90;;;;;;;20.27;90.47;96198.23;1733067;82;20951;-85
2022/09/08 08:09:34;;;;;;;12.10;11.00;;;;;;;20.31;90.58;96195.38;1696963;84;20994;-85
2022/09/08 08:12:17;;;;;;;12.33;11.12;;;;;;;20.32;87.79;96193.01;1736095;82;20937;-85
2022/09/08 08:15:02;;;;;;;11.78;10.75;;;;;;;20.35;89.33;96191.22;1724642;82;22069;-85
2022/09/08 08:17:52;;;;;;;11.68;10.68;;;;;;;20.35;89.82;96194.66;1725146;82;20972;-85
2022/09/08 08:20:42;;;;;;;12.53;11.53;;;;;;;20.42;87.54;96193.16;1726796;83;21494;-85
2022/09/08 08:23:17;;;;;;;12.37;11.28;;;;;;;20.53;88.50;96191.43;1709885;82;21377;-83
2022/09/08 08:26:26;;;;;;;12.07;10.95;;;;;;;20.59;88.24;96185.94;1712975;81;21414;-86
2022/09/08 08:29:37;;;;;;;12.45;11.45;;;;;;;20.61;86.33;96186.48;1758378;80;20996;-86
2022/09/08 08:32:18;;;;;;;10.05;9.20;;;;;;;20.65;85.95;96186.25;1752893;81;21026;-85
2022/09/08 08:34:47;;;;;;;11.43;10.60;;;;;;;20.73;83.36;96177.09;1705493;83;20967;-86
2022/09/08 08:37:19;;;;;;;12.40;11.25;;;;;;;20.84;85.23;96182.75;1735997;82;20975;-86
2022/09/08 08:39:45;;;;;;;12.28;11.18;;;;;;;20.93;85.24;96187.83;1768861;80;21027;-86
2022/09/08 08:42:29;;;;;;;10.90;10.00;;;;;;;20.99;84.60;96191.33;1736676;82;20956;-85
2022/09/08 08:45:02;;;;;;;11.45;10.50;;;;;;;21.06;83.23;96180.54;1755797;81;20959;-85
2022/09/08 08:48:13;;;;;;;10.58;9.65;;;;;;;21.15;82.68;96182.97;1753508;82;20990;-86
2022/09/08 08:51:06;;;;;;;11.95;10.85;;;;;;;21.20;81.41;96181.70;1718342;82;20965;-85
2022/09/08 08:53:46;;;;;;;9.83;9.08;;;;;;;21.34;82.59;96185.54;1743905;80;20979;-86
2022/09/08 08:56:27;;;;;;;11.70;10.78;;;;;;;21.46;80.88;96180.84;1741302;80;21091;-86
2022/09/08 08:59:29;;;;;;;10.80;9.80;;;;;;;21.54;82.25;96175.61;1780255;80;21011;-86
2022/09/08 09:02:21;;;;;;;11.33;10.32;;;;;;;21.54;82.25;96175.61;1741250;80;21364;-85
2022/09/08 09:05:31;;;;;;;11.35;10.25;;;;;;;21.63;83.22;96180.67;1745006;80;20972;-86
2022/09/08 09:08:24;;;;;;;10.63;9.73;;;;;;;21.69;81.01;96182.84;1698518;83;20979;-86
2022/09/08 09:11:23;;;;;;;10.03;9.20;;;;;;;21.76;82.00;96178.89;1719410;82;20956;-86
2022/09/08 09:14:22;;;;;;;11.68;10.65;;;;;;;21.87;80.55;96171.81;1740705;82;21014;-86
2022/09/08 09:17:08;;;;;;;10.82;9.93;;;;;;;21.96;81.91;96170.25;1698673;83;20928;-86
2022/09/08 09:19:56;;;;;;;11.88;10.78;;;;;;;21.97;81.36;96167.11;1724356;82;20995;-86
2022/09/08 09:22:56;;;;;;;11.60;10.60;;;;;;;22.04;79.57;96161.83;1754172;81;20992;-86
2022/09/08 09:25:35;;;;;;;12.40;11.28;;;;;;;22.18;80.12;96158.20;1775083;80;20920;-85
2022/09/08 09:28:36;;;;;;;11.18;10.28;;;;;;;22.27;82.08;96159.80;1738752;81;21405;-86
2022/09/08 09:31:11;;;;;;;10.80;9.90;;;;;;;22.29;82.44;96154.54;1740641;82;21020;-85
2022/09/08 09:34:14;;;;;;;11.88;10.80;;;;;;;22.34;81.72;96153.75;1698311;83;21296;-85
2022/09/08 09:37:19;;;;;;;12.53;11.43;;;;;;;22.36;78.51;96155.60;1687381;82;21005;-85
2022/09/08 09:40:25;;;;;;;11.93;10.72;;;;;;;22.46;81.54;96155.63;1722862;82;20969;-85
2022/09/08 09:43:01;;;;;;;11.73;10.72;;;;;;;22.59;79.16;96155.10;1727600;83;21068;-86
2022/09/08 09:45:54;;;;;;;12.28;11.12;;;;;;;22.77;79.79;96165.18;1727813;83;21332;-85
2022/09/08 09:48:34;;;;;;;12.07;10.95;;;;;;;22.87;80.42;96160.98;1744353;82;20937;-85
2022/09/08 09:51:30;;;;;;;11.65;10.55;;;;;;;22.98;77.64;96155.44;1725160;83;21381;-86
2022/09/08 09:54:11;;;;;;;11.85;10.93;;;;;;;23.15;75.77;96159.66;1709209;83;20976;-86
2022/09/08 09:57:33;;;;;;;12.95;11.95;;;;;;;23.34;73.46;96163.35;1746401;82;21021;-85
2022/09/08 10:00:25;;;;;;;14.63;11.95;;;;;;;23.50;73.02;96155.62;1727161;82;21054;-86
2022/09/08 10:03:08;;;;;;;12.73;11.73;;;;;;;23.68;71.77;96151.63;1697374;84;21019;-86
2022/09/08 10:05:51;;;;;;;13.10;11.90;;;;;;;23.84;71.31;96146.53;1675125;84;21076;-85
2022/09/08 10:08:38;;;;;;;12.68;11.45;;;;;;;23.95;72.42;96145.44;1664794;84;21112;-85
2022/09/08 10:11:55;;;;;;;13.18;12.07;;;;;;;24.07;70.05;96144.30;1723223;83;20950;-86
2022/09/08 10:14:46;;;;;;;12.70;11.65;;;;;;;24.20;69.70;96131.23;1694635;83;20972;-85
2022/09/08 10:17:26;;;;;;;12.63;11.50;;;;;;;24.33;68.46;96125.89;1715019;83;20925;-86
2022/09/08 10:20:16;;;;;;;12.85;11.68;;;;;;;24.45;70.34;96123.70;1711444;82;21328;-86
2022/09/08 10:23:23;;;;;;;12.43;11.33;;;;;;;24.50;70.04;96124.98;1698697;82;20965;-86
2022/09/08 10:26:00;;;;;;;12.98;11.65;;;;;;;24.61;69.93;96123.05;1721390;82;20982;-86
2022/09/08 10:29:24;;;;;;;13.58;12.37;;;;;;;24.56;69.78;96127.05;1705397;83;21032;-86
2022/09/08 10:32:13;;;;;;;14.18;12.85;;;;;;;24.42;69.02;96125.58;1679253;85;21434;-86
2022/09/08 10:35:25;;;;;;;14.00;12.73;;;;;;;24.29;72.20;96134.15;1676312;84;21422;-86
2022/09/08 10:38:00;;;;;;;13.13;12.13;;;;;;;24.16;72.48;96124.89;1674200;84;20972;-86
2022/09/08 10:40:32;;;;;;;13.48;12.37;;;;;;;24.04;73.13;96115.13;1706561;83;21928;-86
2022/09/08 10:43:35;;;;;;;13.90;12.73;;;;;;;23.91;73.83;96124.47;1732730;82;20988;-86
2022/09/08 10:46:15;;;;;;;13.88;12.50;;;;;;;23.82;74.45;96126.12;1722336;82;21009;-86
2022/09/08 10:49:15;;;;;;;;;;;;;;;23.65;74.13;96125.12;1724617;82;21360;-85
2022/09/08 10:52:10;;;;;;;14.58;13.38;;;;;;;23.56;75.13;96125.91;1740018;82;20374;-86
2022/09/08 10:55:10;;;;;;;14.83;13.60;;;;;;;23.48;76.18;96121.96;1731025;82;20990;-86
2022/09/08 10:58:00;;;;;;;13.93;12.73;;;;;;;23.48;77.11;96119.84;1732744;82;20964;-86
2022/09/08 11:00:28;;;;;;;15.40;14.05;;;;;;;23.50;76.95;96125.13;1727275;82;21085;-85
2022/09/08 11:03:48;;;;;;;15.20;13.90;;;;;;;23.57;77.93;96123.01;1731142;82;20959;-86
2022/09/08 11:06:37;;;;;;;14.58;13.48;;;;;;;23.62;77.53;96119.57;1714053;82;20984;-86
2022/09/08 11:09:14;;;;;;;14.60;13.35;;;;;;;23.69;78.14;96113.96;1717060;82;20969;-86
2022/09/08 11:11:46;;;;;;;14.60;13.50;;;;;;;23.70;78.28;96109.71;1717133;82;21490;-86
2022/09/08 11:14:46;;;;;;;15.25;13.95;;;;;;;23.78;75.79;96110.49;1725737;82;21041;-86
2022/09/08 11:17:26;;;;;;;14.75;13.45;;;;;;;23.91;77.11;96103.78;1724130;82;21049;-86
2022/09/08 11:20:15;;;;;;;13.55;12.35;;;;;;;24.04;76.61;96102.39;1707787;83;21007;-86
2022/09/08 11:23:04;;;;;;;14.45;13.22;;;;;;;24.15;77.43;96099.42;1716695;82;21395;-85
2022/09/08 11:25:52;;;;;;;14.60;13.48;;;;;;;24.22;78.55;96091.14;1733849;82;20964;-86
2022/09/08 11:28:47;;;;;;;14.47;13.35;;;;;;;24.28;78.85;96093.25;1736804;82;21000;-86
2022/09/08 11:31:36;;;;;;;14.60;13.50;;;;;;;24.28;78.65;96094.58;1743478;81;21027;-85
2022/09/08 11:34:19;;;;;;;14.55;13.28;;;;;;;24.27;79.72;96092.98;1733524;81;21357;-86
2022/09/08 11:37:28;;;;;;;15.45;13.58;;;;;;;24.30;79.14;96095.91;1742249;81;22101;-86
2022/09/08 11:40:25;;;;;;;15.60;14.28;;;;;;;24.26;79.29;96092.20;1748323;82;20968;-85
2022/09/08 11:43:02;;;;;;;15.13;13.72;;;;;;;24.25;80.73;96092.73;1733879;82;21442;-86
2022/09/08 11:45:56;;;;;;;15.25;13.85;;;;;;;24.21;80.81;96085.57;1727184;82;20976;-85
2022/09/08 11:48:49;;;;;;;15.90;14.50;;;;;;;24.15;79.71;96085.35;1747628;81;21020;-86
2022/09/08 11:51:52;;;;;;;14.80;13.40;;;;;;;24.14;80.57;96077.13;1747225;81;20968;-86
2022/09/08 11:54:49;;;;;;;14.10;12.50;;;;;;;24.25;79.04;96082.65;1748002;81;20983;-86
2022/09/08 11:57:31;;;;;;;13.68;12.40;;;;;;;24.50;78.52;96085.67;1749654;81;20976;-86
2022/09/08 12:00:20;;;;;;;12.68;11.38;;;;;;;24.71;78.16;96084.44;1749898;80;20992;-86
2022/09/08 12:02:57;;;;;;;11.80;10.65;;;;;;;24.75;76.40;96078.05;1727669;81;21012;-86
2022/09/08 12:05:41;;;;;;;12.73;11.57;;;;;;;24.80;77.88;96076.14;1736054;81;20980;-86
2022/09/08 12:08:33;;;;;;;14.23;11.78;;;;;;;24.94;76.92;96070.17;1753258;80;21027;-86
2022/09/08 12:11:17;;;;;;;12.28;9.90;;;;;;;25.18;76.35;96066.23;1729617;82;21351;-86
2022/09/08 12:14:20;;;;;;;12.23;11.00;;;;;;;25.49;76.77;96067.48;1724365;81;21014;-87